Startpagina
METAR-TAF:

METAR-TAF

Vliegvelden :

Bogota, Colombia

Aeropuerto Internacional El Dorado

breedte: 04-43N, lengte: 074-09W, hoogte: 2547 m

Actueel weer

Dit bericht is 28 minuten geleden gemaakt, om 12:30 UTC
Wind 5 kt uit het oostnoordoosten
Temperatuur 13°C
Vochtigheid 72%
Druk 1030 hPa
Zicht 10 km of meer
Weinig wolken op 2000 ft
Gebroken wolken op 20000 ft

METAR: SKBO 261230Z 06005KT 9999 FEW020 BKN200 13/08 A3041

Tijdstip: 07:58 (12:58 UTC)

Verwachting

Dit bericht is 1 uur en het 58 minuten geleden gemaakt, om 11:00 UTC
Verwachting geldig van 26 om 12 UTC tot 27 om 12 UTC
Wind 4 kt uit het oosten
Zicht 10 km of meer
Weinig wolken op 2000 ft
Verspreide wolken op 20000 ft
Tijdelijke
van 26 om 12 UTC tot 26 om 13 UTC
Zicht: 7000 m
Verspreide wolken op 1500 ft
mist in de omgeving
Wijzigt naar
van 26 om 16 UTC tot 26 om 18 UTC
Wind 12 kt uit het zuidoosten
Kans 40%
van 26 om 18 UTC tot 26 om 21 UTC
Zicht: 8000 m
Verspreide wolken op 2000 ft, Stapelwolken.
buien in de omgeving
Tijdelijke
van 27 om 00 UTC tot 27 om 02 UTC
Verspreide wolken op 1800 ft, Stapelwolken.
Tijdelijke
van 27 om 09 UTC tot 27 om 12 UTC
Wind 2 kt uit variabele richting
Zicht 10 km of meer
Verspreide wolken op 1500 ft
Weinig wolken op 1800 ft
Verspreide wolken op 20000 ft
mist in de omgeving
Tijdelijke
van 26 om 12 UTC tot 26 om 13 UTC
Zicht: 8000 m
Verspreide wolken op 1000 ft
Ondiepe mist
Tijdelijke
van 26 om 18 UTC tot 26 om 23 UTC
Wind 10 kt uit het noordwesten
Kans 40%
van 26 om 18 UTC tot 26 om 21 UTC
Zicht: 8000 m
Verspreide wolken op 1700 ft, Stapelwolken.
buien in de omgeving
Tijdelijke
van 27 om 00 UTC tot 27 om 02 UTC
Verspreide wolken op 1600 ft, Stapelwolken.
Tijdelijke
van 27 om 09 UTC tot 27 om 12 UTC
Wind 3 kt uit het zuidwesten
Zicht 10 km of meer
Verspreide wolken op 1000 ft
Weinig wolken op 1800 ft
Verspreide wolken op 20000 ft
mistbanken
Tijdelijke
van 26 om 12 UTC tot 26 om 13 UTC
Zicht: 5000 m
Verspreide wolken op 1000 ft
mistbanken
Tijdelijke
van 26 om 18 UTC tot 26 om 23 UTC
Wind 8 kt uit het zuidoosten
Verspreide wolken op 1800 ft, Stapelwolken.
Kans 40%
van 26 om 20 UTC tot 26 om 23 UTC
Zicht: 8000 m
Verspreide wolken op 1500 ft, Cumulonimbus.
regen, motregen
Tijdelijke
van 27 om 04 UTC tot 27 om 08 UTC
Zicht: 8000 m
Verspreide wolken op 1300 ft, Stapelwolken.
lichte motregen, regen
Tijdelijke
van 27 om 09 UTC tot 27 om 12 UTC
Zicht: 3000 m
Verspreide wolken op 1000 ft
nevel

TAF: SKBO 261100Z 2612/2712 08004KT 9999 FEW020 SCT200 TEMPO 2612/2613 7000 VCFG SCT015 BECMG 2616/2618 14012KT PROB40 2618/2621 8000 VCSH SCT020TCU TEMPO 2700/2702 SCT018TCU TEMPO 2709/2712 7000 VCFG SCT015 TX21/2618Z SKPE 261100Z 2612/2712 VRB02KT 9999 FEW018 SCT200 TEMPO 2612/2613 8000 MIFG SCT010 TEMPO 2618/2623 32010KT PROB40 2618/2621 8000 VCSH SCT017TCU TEMPO 2700/2702 SCT016TCU TEMPO 2709/2712 5000 BCFG SCT010 TX29/2619Z SKRG 261100Z 2612/2712 22003KT 9999 FEW018 SCT200 TEMPO 2612/2613 5000 BCFG SCT010 TEMPO 2618/2623 13008KT SCT018TCU PROB40 2620/2623 8000 RADZ SCT015CB TEMPO 2704/2708 8000 -DZRA SCT013TCU TEMPO 2709/2712 3000 BR SCT010 TX24/2619Z TN11/2711Z

Waarnemingen en weersverwachtingen van meer dan 4000 vliegvelden (METAR en TAF).

De beschikbare stations zijn de gele en rode punten op de kaart.

Ga met uw muis naar het station om de naam te zien.

Klik dan om waarnemingen en weersverwachtingen te zien.

kaart wijzigen: klik op de groene knoppen met een zwart kruis om in te zoomen, op de groene knop met een streepje om uit te zoomen of op de groene pijlen voor aangrenzende kaarten.


METAR-TAF: